createdAt,value
2017-02-27T00:00:58.411Z,1003.33
2017-02-27T00:02:09.885Z,1003.39
2017-02-27T00:03:21.394Z,1003.35
2017-02-27T00:04:32.888Z,1003.36
2017-02-27T00:05:44.387Z,1003.28
2017-02-27T00:06:55.877Z,1003.3
2017-02-27T00:08:07.435Z,1003.3
2017-02-27T00:09:18.945Z,1003.28
2017-02-27T00:10:30.450Z,1003.31
2017-02-27T00:11:41.947Z,1003.24
2017-02-27T00:12:53.454Z,1003.29
2017-02-27T00:14:04.974Z,1003.29
2017-02-27T00:15:16.482Z,1003.32
2017-02-27T00:16:28.013Z,1003.31
2017-02-27T00:17:39.568Z,1003.32
2017-02-27T00:18:51.254Z,1003.28
2017-02-27T00:20:02.774Z,1003.24
2017-02-27T00:21:14.297Z,1003.22
2017-02-27T00:22:25.827Z,1003.21
2017-02-27T00:23:37.533Z,1003.24
2017-02-27T00:24:49.264Z,1003.23
2017-02-27T00:26:00.760Z,1003.19
2017-02-27T00:27:12.325Z,1003.18
2017-02-27T00:28:23.907Z,1003.21
2017-02-27T00:29:35.606Z,1003.17
2017-02-27T00:30:47.090Z,1003.19
2017-02-27T00:31:58.605Z,1003.17
2017-02-27T00:33:10.096Z,1003.23
2017-02-27T00:34:21.584Z,1003.16
2017-02-27T00:35:33.274Z,1003.19
2017-02-27T00:36:44.953Z,1003.18
2017-02-27T00:37:56.450Z,1003.19
2017-02-27T00:39:08.017Z,1003.14
2017-02-27T00:40:19.502Z,1003.22
2017-02-27T00:41:31.209Z,1003.17
2017-02-27T00:42:42.712Z,1003.17
2017-02-27T00:43:54.215Z,1003.18
2017-02-27T00:45:05.768Z,1003.18
2017-02-27T00:46:17.441Z,1003.16
2017-02-27T00:47:28.958Z,1003.16
2017-02-27T00:48:40.472Z,1003.17
2017-02-27T00:49:51.963Z,1003.16
2017-02-27T00:51:03.534Z,1003.15
2017-02-27T00:52:15.049Z,1003.13
2017-02-27T00:53:26.545Z,1003.13
2017-02-27T00:54:38.062Z,1003.1
2017-02-27T00:55:49.575Z,1003.1
2017-02-27T00:57:01.073Z,1003.1
2017-02-27T00:58:12.562Z,1003.09
2017-02-27T00:59:24.091Z,1003.09
2017-02-27T01:00:35.652Z,1003.1
2017-02-27T01:01:47.175Z,1003.09
2017-02-27T01:02:58.897Z,1003.07
2017-02-27T01:04:10.435Z,1003.06
2017-02-27T01:05:21.932Z,1003.04
2017-02-27T01:06:33.423Z,1003.02
2017-02-27T01:07:44.921Z,1003.01
2017-02-27T01:08:56.421Z,1003.03
2017-02-27T01:10:07.925Z,1003
2017-02-27T01:11:19.492Z,1003.02
2017-02-27T01:12:31.004Z,1003.02
2017-02-27T01:13:42.549Z,1003
2017-02-27T01:14:54.046Z,1002.97
2017-02-27T01:16:05.550Z,1003
2017-02-27T01:17:17.053Z,1002.96
2017-02-27T01:18:28.759Z,1002.99
2017-02-27T01:19:40.266Z,1002.99
2017-02-27T01:20:51.783Z,1003
2017-02-27T01:22:03.330Z,1003.02
2017-02-27T01:23:15.013Z,1002.95
2017-02-27T01:24:26.536Z,1002.97
2017-02-27T01:25:38.054Z,1002.94
2017-02-27T01:26:49.540Z,1002.93
2017-02-27T01:28:01.047Z,1002.9
2017-02-27T01:29:12.962Z,1002.88
2017-02-27T01:30:24.677Z,1002.85
2017-02-27T01:31:36.360Z,1002.86
2017-02-27T01:32:47.879Z,1002.85
2017-02-27T01:33:59.386Z,1002.75
2017-02-27T01:53:47.888Z,1002.54
2017-02-27T01:54:59.819Z,1002.53
2017-02-27T01:56:11.325Z,1002.5
2017-02-27T01:57:22.820Z,1002.47
2017-02-27T01:58:34.315Z,1002.45
2017-02-27T01:59:45.813Z,1002.47
2017-02-27T02:00:57.351Z,1002.42
2017-02-27T02:02:08.848Z,1002.4
2017-02-27T02:03:20.574Z,1002.37
2017-02-27T02:04:32.281Z,1002.38
2017-02-27T02:05:43.798Z,1002.4
2017-02-27T02:06:55.301Z,1002.38
2017-02-27T02:08:06.993Z,1002.34
2017-02-27T02:09:18.511Z,1002.34
2017-02-27T02:10:30.065Z,1002.34
2017-02-27T02:11:41.559Z,1002.29
2017-02-27T02:12:53.268Z,1002.32
2017-02-27T02:14:04.985Z,1002.3
2017-02-27T02:15:16.519Z,1002.29
2017-02-27T02:16:28.249Z,1002.27
2017-02-27T02:17:39.971Z,1002.28
2017-02-27T02:18:51.688Z,1002.26
2017-02-27T02:20:03.179Z,1002.19
2017-02-27T02:21:14.745Z,1002.26
2017-02-27T02:22:26.261Z,1002.2
2017-02-27T02:23:37.937Z,1002.2
2017-02-27T02:24:49.448Z,1002.16
2017-02-27T02:26:00.931Z,1002.16
2017-02-27T02:27:12.498Z,1002.13
2017-02-27T02:28:23.983Z,1002.14
2017-02-27T02:29:35.486Z,1002.11
2017-02-27T02:30:46.993Z,1002.09
2017-02-27T02:31:58.537Z,1002.11
2017-02-27T02:33:10.256Z,1002.09
2017-02-27T02:34:21.752Z,1002.06
2017-02-27T02:35:33.256Z,1002.05
2017-02-27T02:36:44.744Z,1002.04
2017-02-27T02:37:56.243Z,1002
2017-02-27T02:39:07.740Z,1001.96
2017-02-27T02:40:19.259Z,1001.97
2017-02-27T02:41:30.773Z,1001.96
2017-02-27T02:42:42.284Z,1001.95
2017-02-27T02:43:53.981Z,1001.95
2017-02-27T02:45:05.486Z,1001.94
2017-02-27T02:46:17.004Z,1001.96
2017-02-27T02:47:28.496Z,1001.92
2017-02-27T02:48:40.006Z,1001.89
2017-02-27T02:49:51.583Z,1001.87
2017-02-27T02:51:03.085Z,1001.88
2017-02-27T02:52:14.582Z,1001.89
2017-02-27T02:53:26.298Z,1001.79
2017-02-27T02:54:37.781Z,1001.81
2017-02-27T02:55:49.267Z,1001.8
2017-02-27T02:57:00.761Z,1001.76
2017-02-27T02:58:12.254Z,1001.77
2017-02-27T02:59:23.827Z,1001.77
2017-02-27T03:00:35.319Z,1001.73
2017-02-27T03:01:47.039Z,1001.74
2017-02-27T03:02:58.537Z,1001.71
2017-02-27T03:04:10.078Z,1001.7
2017-02-27T03:05:21.569Z,1001.67
2017-02-27T03:06:33.074Z,1001.64
2017-02-27T03:07:44.573Z,1001.61
2017-02-27T03:08:56.286Z,1001.62
2017-02-27T03:10:07.872Z,1001.62
2017-02-27T03:11:19.800Z,1001.56
2017-02-27T03:12:31.293Z,1001.5
2017-02-27T03:13:42.985Z,1001.51
2017-02-27T03:14:54.482Z,1001.47
2017-02-27T03:16:06.012Z,1001.48
2017-02-27T03:17:17.512Z,1001.46
2017-02-27T03:18:29.213Z,1001.45
2017-02-27T03:19:40.732Z,1001.42
2017-02-27T03:20:52.264Z,1001.4
2017-02-27T03:22:03.785Z,1001.41
2017-02-27T03:23:15.483Z,1001.38
2017-02-27T03:24:26.982Z,1001.36
2017-02-27T03:25:38.479Z,1001.34
2017-02-27T03:26:49.987Z,1001.33
2017-02-27T03:28:01.517Z,1001.29
2017-02-27T03:29:13.000Z,1001.24
2017-02-27T03:30:24.497Z,1001.22
2017-02-27T03:31:36.005Z,1001.23
2017-02-27T03:32:47.579Z,1001.18
2017-02-27T03:33:59.067Z,1001.18
2017-02-27T03:35:10.592Z,1001.19
2017-02-27T03:36:22.102Z,1001.17
2017-02-27T03:37:33.621Z,1001.14
2017-02-27T03:38:45.101Z,1001.16
2017-02-27T03:39:56.610Z,1001.16
2017-02-27T03:41:08.095Z,1001.12
2017-02-27T03:42:19.841Z,1001.14
2017-02-27T03:43:31.533Z,1001.15
2017-02-27T03:44:43.243Z,1001.15
2017-02-27T03:45:54.720Z,1001.13
2017-02-27T03:47:06.434Z,1001.1
2017-02-27T03:48:18.126Z,1001.12
2017-02-27T03:49:29.617Z,1001.1
2017-02-27T03:50:41.117Z,1001.08
2017-02-27T03:51:52.634Z,1001.02
2017-02-27T03:53:04.193Z,1001.03
2017-02-27T03:54:15.680Z,1001.01
2017-02-27T03:55:27.176Z,1001
2017-02-27T03:56:38.693Z,1000.98
2017-02-27T03:57:50.190Z,1000.93
2017-02-27T03:59:01.703Z,1000.97
2017-02-27T04:00:13.413Z,1000.93
2017-02-27T04:01:24.926Z,1000.97
2017-02-27T04:02:36.434Z,1000.92
2017-02-27T04:03:47.997Z,1000.89
2017-02-27T04:04:59.507Z,1000.88
2017-02-27T04:06:11.239Z,1000.88
2017-02-27T04:07:22.753Z,1000.86
2017-02-27T04:08:34.497Z,1000.86
2017-02-27T04:09:46.009Z,1000.85
2017-02-27T04:10:57.712Z,1000.82
2017-02-27T04:12:09.212Z,1000.78
2017-02-27T04:13:20.713Z,1000.8
2017-02-27T04:14:32.224Z,1000.8
2017-02-27T04:15:43.811Z,1000.78
2017-02-27T04:16:55.324Z,1000.79
2017-02-27T04:18:06.817Z,1000.74
2017-02-27T04:19:18.350Z,1000.72
2017-02-27T04:20:30.045Z,1000.72
2017-02-27T04:21:41.560Z,1000.7
2017-02-27T04:22:53.059Z,1000.69
2017-02-27T04:24:04.774Z,1000.75
2017-02-27T04:25:16.349Z,1000.69
2017-02-27T04:26:27.851Z,1000.66
2017-02-27T04:27:39.359Z,1000.68
2017-02-27T04:28:50.864Z,1000.73
2017-02-27T04:30:02.379Z,1000.68
2017-02-27T04:31:13.852Z,1000.64
2017-02-27T04:32:25.357Z,1000.65
2017-02-27T04:33:36.853Z,1000.66
2017-02-27T04:34:48.360Z,1000.62
2017-02-27T04:35:59.900Z,1000.62
2017-02-27T04:37:11.599Z,1000.6
2017-02-27T04:38:23.084Z,1000.6
2017-02-27T04:39:34.567Z,1000.57
2017-02-27T04:40:46.063Z,1000.55
2017-02-27T04:41:57.564Z,1000.54
2017-02-27T04:43:09.105Z,1000.54
2017-02-27T04:44:20.608Z,1000.48
2017-02-27T04:45:32.111Z,1000.51
2017-02-27T04:46:43.668Z,1000.47
2017-02-27T04:47:55.169Z,1000.46
2017-02-27T04:49:06.669Z,1000.5
2017-02-27T04:50:18.188Z,1000.44
2017-02-27T04:51:29.689Z,1000.42
2017-02-27T04:52:41.412Z,1000.43
2017-02-27T04:53:53.136Z,1000.42
2017-02-27T04:55:04.652Z,1000.43
2017-02-27T04:56:16.161Z,1000.41
2017-02-27T04:57:27.841Z,1000.4
2017-02-27T04:58:39.389Z,1000.38
2017-02-27T04:59:50.880Z,1000.36
2017-02-27T05:01:02.350Z,1000.4
2017-02-27T05:02:13.875Z,1000.41
2017-02-27T05:03:25.423Z,1000.39
2017-02-27T05:04:36.934Z,1000.34
2017-02-27T05:05:48.434Z,1000.29
2017-02-27T05:06:59.960Z,1000.3
2017-02-27T05:08:11.503Z,1000.28
2017-02-27T05:09:23.002Z,1000.29
2017-02-27T05:10:34.504Z,1000.24
2017-02-27T05:11:46.219Z,1000.26
2017-02-27T05:12:57.931Z,1000.21
2017-02-27T05:14:09.632Z,1000.22
2017-02-27T05:15:21.131Z,1000.24
2017-02-27T05:16:32.645Z,1000.22
2017-02-27T05:17:44.140Z,1000.2
2017-02-27T05:18:55.904Z,1000.19
2017-02-27T05:20:07.402Z,1000.19
2017-02-27T05:21:18.921Z,1000.18
2017-02-27T05:22:30.419Z,1000.16
2017-02-27T05:23:41.925Z,1000.14
2017-02-27T05:24:53.418Z,1000.15
2017-02-27T05:26:04.945Z,1000.1
2017-02-27T05:27:16.442Z,1000.09
2017-02-27T05:28:27.935Z,1000.02
2017-02-27T05:29:39.480Z,1000.03
2017-02-27T05:30:50.987Z,1000
2017-02-27T05:32:02.473Z,999.97
2017-02-27T05:33:13.987Z,999.91
2017-02-27T05:34:25.485Z,999.91
2017-02-27T05:35:37.005Z,999.94
2017-02-27T05:36:48.710Z,999.92
2017-02-27T05:38:00.204Z,999.89
2017-02-27T05:39:11.709Z,999.9
2017-02-27T05:40:23.216Z,999.89
2017-02-27T05:41:34.762Z,999.83
2017-02-27T05:42:46.262Z,999.89
2017-02-27T05:43:57.965Z,999.82
2017-02-27T05:45:09.682Z,999.85
2017-02-27T05:46:21.197Z,999.8
2017-02-27T05:47:32.717Z,999.82
2017-02-27T05:48:44.216Z,999.75
2017-02-27T05:49:55.924Z,999.77
2017-02-27T05:51:07.493Z,999.74
2017-02-27T05:52:18.990Z,999.71
2017-02-27T05:53:30.504Z,999.66
2017-02-27T05:54:42.002Z,999.65
2017-02-27T05:55:53.494Z,999.7
2017-02-27T05:57:04.975Z,999.63
2017-02-27T05:58:16.475Z,999.66
2017-02-27T05:59:27.990Z,999.65
2017-02-27T06:00:39.501Z,999.57
2017-02-27T06:01:51.269Z,999.6
2017-02-27T06:03:02.984Z,999.56
2017-02-27T06:04:14.497Z,999.54
2017-02-27T06:05:26.210Z,999.5
2017-02-27T06:06:37.724Z,999.46
2017-02-27T06:07:49.229Z,999.54
2017-02-27T06:09:01.124Z,999.49
2017-02-27T06:10:12.816Z,999.51
2017-02-27T06:11:24.516Z,999.47
2017-02-27T06:12:36.271Z,999.49
2017-02-27T06:13:47.760Z,999.49
2017-02-27T06:14:59.457Z,999.5
2017-02-27T06:16:10.980Z,999.5
2017-02-27T06:17:22.474Z,999.51
2017-02-27T06:18:34.173Z,999.49
2017-02-27T06:19:45.877Z,999.52
2017-02-27T06:20:57.363Z,999.52
2017-02-27T06:22:09.067Z,999.54
2017-02-27T06:23:20.578Z,999.51
2017-02-27T06:24:32.132Z,999.53
2017-02-27T06:25:43.652Z,999.51
2017-02-27T06:26:55.370Z,999.48
2017-02-27T06:28:06.860Z,999.48
2017-02-27T06:29:18.397Z,999.42
2017-02-27T06:30:30.108Z,999.41
2017-02-27T06:31:41.624Z,999.43
2017-02-27T06:32:53.334Z,999.45
2017-02-27T06:34:04.894Z,999.46
2017-02-27T06:35:16.389Z,999.44
2017-02-27T06:36:27.870Z,999.41
2017-02-27T06:37:39.371Z,999.39
2017-02-27T06:38:51.067Z,999.38
2017-02-27T06:40:02.621Z,999.37
2017-02-27T06:41:14.317Z,999.32
2017-02-27T06:42:25.839Z,999.39
2017-02-27T06:43:37.334Z,999.34
2017-02-27T06:44:48.877Z,999.34
2017-02-27T06:46:00.555Z,999.32
2017-02-27T06:47:12.257Z,999.34
2017-02-27T06:48:23.769Z,999.33
2017-02-27T06:49:35.280Z,999.33
2017-02-27T06:50:46.783Z,999.3
2017-02-27T06:51:58.490Z,999.3
2017-02-27T06:53:10.188Z,999.26
2017-02-27T06:54:21.887Z,999.26
2017-02-27T06:55:33.392Z,999.27
2017-02-27T06:56:44.893Z,999.2
2017-02-27T06:57:56.400Z,999.19
2017-02-27T06:59:07.893Z,999.2
2017-02-27T07:00:19.405Z,999.21
2017-02-27T07:01:30.920Z,999.19
2017-02-27T07:02:42.409Z,999.15
2017-02-27T07:03:54.123Z,999.16
2017-02-27T07:05:05.644Z,999.16
2017-02-27T07:06:17.175Z,999.14
2017-02-27T07:07:28.743Z,999.12
2017-02-27T07:08:40.247Z,999.07
2017-02-27T07:09:51.794Z,999.1
2017-02-27T07:11:03.304Z,999.09
2017-02-27T07:12:15.042Z,999.08
2017-02-27T07:13:26.539Z,999.05
2017-02-27T07:14:38.013Z,998.98
2017-02-27T07:15:49.526Z,999.01
2017-02-27T07:17:01.089Z,999.03
2017-02-27T07:18:12.599Z,998.98
2017-02-27T07:19:24.124Z,999.03
2017-02-27T07:20:35.641Z,999
2017-02-27T07:21:47.133Z,998.92
2017-02-27T07:22:58.850Z,998.95
2017-02-27T07:24:10.358Z,998.9
2017-02-27T07:25:22.073Z,998.95
2017-02-27T07:26:33.565Z,998.96
2017-02-27T07:27:45.339Z,998.93
2017-02-27T07:28:57.047Z,998.92
2017-02-27T07:30:08.763Z,998.93
2017-02-27T07:31:20.256Z,998.92
2017-02-27T07:32:31.742Z,998.85
2017-02-27T07:33:43.269Z,998.81
2017-02-27T07:34:54.786Z,998.83
2017-02-27T07:36:06.485Z,998.85
2017-02-27T07:37:17.979Z,998.81
2017-02-27T07:38:29.491Z,998.83
2017-02-27T07:39:40.985Z,998.81
2017-02-27T07:40:52.683Z,998.8
2017-02-27T07:42:04.381Z,998.79
2017-02-27T07:43:15.884Z,998.77
2017-02-27T07:44:27.641Z,998.77
2017-02-27T07:45:39.141Z,998.74
2017-02-27T07:46:50.650Z,998.78
2017-02-27T07:48:02.171Z,998.68
2017-02-27T07:49:13.868Z,998.7
2017-02-27T07:50:25.432Z,998.66
2017-02-27T07:51:36.939Z,998.63
2017-02-27T07:52:48.425Z,998.69
2017-02-27T07:53:59.947Z,998.61
2017-02-27T07:55:11.455Z,998.61
2017-02-27T07:56:22.973Z,998.61
2017-02-27T07:57:34.481Z,998.61
2017-02-27T07:58:45.975Z,998.54
2017-02-27T07:59:57.535Z,998.55
2017-02-27T08:01:09.008Z,998.51
2017-02-27T08:02:20.504Z,998.48
2017-02-27T08:03:32.196Z,998.48
2017-02-27T08:04:43.674Z,998.48
2017-02-27T08:05:55.182Z,998.48
2017-02-27T08:07:06.675Z,998.45
2017-02-27T08:08:18.165Z,998.49
2017-02-27T08:09:29.687Z,998.42
2017-02-27T08:10:41.463Z,998.48
2017-02-27T08:11:52.966Z,998.49
2017-02-27T08:13:04.472Z,998.41
2017-02-27T08:14:15.975Z,998.39
2017-02-27T08:15:27.690Z,998.27
2017-02-27T08:16:39.194Z,998.29
2017-02-27T08:17:50.689Z,998.39
2017-02-27T08:19:02.192Z,998.36
2017-02-27T08:20:13.696Z,998.38
2017-02-27T08:21:25.222Z,998.33
2017-02-27T08:22:36.733Z,998.24
2017-02-27T08:23:48.230Z,998.26
2017-02-27T08:24:59.977Z,998.18
2017-02-27T08:26:11.462Z,998.15
2017-02-27T08:27:22.957Z,998.17
2017-02-27T08:28:34.499Z,998.14
2017-02-27T08:29:46.191Z,998.11
2017-02-27T08:30:57.695Z,998.07
2017-02-27T08:32:09.201Z,998.1
2017-02-27T08:33:20.966Z,998.08
2017-02-27T08:34:32.470Z,998.09
2017-02-27T08:35:43.999Z,998.01
2017-02-27T08:36:55.514Z,997.99
2017-02-27T08:38:07.059Z,998.05
2017-02-27T08:39:18.573Z,998.06
2017-02-27T08:40:30.268Z,998.04
2017-02-27T08:41:41.761Z,997.98
2017-02-27T08:42:53.254Z,998.01
2017-02-27T08:44:04.752Z,998.02
2017-02-27T08:45:16.244Z,997.97
2017-02-27T08:46:27.953Z,997.96
2017-02-27T08:47:39.650Z,997.98
2017-02-27T08:48:51.195Z,997.94
2017-02-27T08:50:02.712Z,997.92
2017-02-27T08:51:14.203Z,997.85
2017-02-27T08:52:25.710Z,997.91
2017-02-27T08:53:37.218Z,997.86
2017-02-27T08:54:48.929Z,997.9
2017-02-27T08:56:00.440Z,997.83
2017-02-27T08:57:11.934Z,997.85
2017-02-27T08:58:23.447Z,997.91
2017-02-27T08:59:35.162Z,997.89
2017-02-27T09:00:46.668Z,997.82
2017-02-27T09:01:58.167Z,997.78
2017-02-27T09:03:09.665Z,997.73
2017-02-27T09:04:21.373Z,997.75
2017-02-27T09:05:32.932Z,997.75
2017-02-27T09:06:44.445Z,997.74
2017-02-27T09:07:55.954Z,997.68
2017-02-27T09:09:07.444Z,997.75
2017-02-27T09:10:18.946Z,997.72
2017-02-27T09:11:30.439Z,997.68
2017-02-27T09:12:41.952Z,997.79
2017-02-27T09:13:53.658Z,997.66
2017-02-27T09:15:05.432Z,997.65
2017-02-27T09:16:16.943Z,997.63
2017-02-27T09:17:28.468Z,997.62
2017-02-27T09:18:39.948Z,997.65
2017-02-27T09:19:51.459Z,997.64
2017-02-27T09:21:03.247Z,997.64
2017-02-27T09:22:14.768Z,997.56
2017-02-27T09:23:26.480Z,997.55
2017-02-27T09:24:37.970Z,997.66
2017-02-27T09:25:49.521Z,997.59
2017-02-27T09:27:01.250Z,997.61
2017-02-27T09:28:12.759Z,997.58
2017-02-27T09:29:24.272Z,997.52
2017-02-27T09:30:35.960Z,997.55
2017-02-27T09:31:47.538Z,997.47
2017-02-27T09:32:59.268Z,997.51
2017-02-27T09:34:10.974Z,997.41
2017-02-27T09:35:22.498Z,997.39
2017-02-27T09:36:34.034Z,997.38
2017-02-27T09:37:45.533Z,997.32
2017-02-27T09:38:57.255Z,997.32
2017-02-27T09:40:08.770Z,997.37
2017-02-27T09:41:20.303Z,997.28
2017-02-27T09:42:31.797Z,997.17
2017-02-27T09:43:43.304Z,997.19
2017-02-27T09:44:54.813Z,997.14
2017-02-27T09:46:06.336Z,997.1
2017-02-27T09:47:18.109Z,997.04
2017-02-27T09:48:29.619Z,997.09
2017-02-27T09:49:41.125Z,997.1
2017-02-27T09:50:52.624Z,997.14
2017-02-27T09:52:04.139Z,997.02
2017-02-27T09:53:15.640Z,996.98
2017-02-27T09:54:27.226Z,996.94
2017-02-27T09:55:38.731Z,997.06
2017-02-27T09:56:50.452Z,996.97
2017-02-27T09:58:01.963Z,996.91
2017-02-27T09:59:13.464Z,996.95
2017-02-27T10:00:24.969Z,996.85
2017-02-27T10:01:36.673Z,996.83
2017-02-27T10:02:48.178Z,996.87
2017-02-27T10:03:59.733Z,996.83
2017-02-27T10:05:11.448Z,996.89
2017-02-27T10:06:23.166Z,996.79
2017-02-27T10:07:34.654Z,996.81
2017-02-27T10:08:46.175Z,996.77
2017-02-27T10:09:57.667Z,996.8
2017-02-27T10:11:09.389Z,996.77
2017-02-27T10:12:20.921Z,996.78
2017-02-27T10:13:32.644Z,996.73
2017-02-27T10:14:44.184Z,996.75
2017-02-27T10:15:55.891Z,996.69
2017-02-27T10:17:07.417Z,996.72
2017-02-27T10:18:18.909Z,996.71
2017-02-27T10:19:30.632Z,996.67
2017-02-27T10:20:42.117Z,996.53
2017-02-27T10:21:53.615Z,996.55
2017-02-27T10:23:05.303Z,996.57
2017-02-27T10:24:17.013Z,996.5
2017-02-27T10:25:28.784Z,996.42
2017-02-27T10:26:40.273Z,996.48
2017-02-27T10:27:51.770Z,996.49
2017-02-27T10:29:03.281Z,996.44
2017-02-27T10:30:14.786Z,996.35
2017-02-27T10:31:26.313Z,996.36
2017-02-27T10:32:38.024Z,996.4
2017-02-27T10:33:49.526Z,996.31
2017-02-27T10:35:01.236Z,996.22
2017-02-27T10:36:12.944Z,996.3
2017-02-27T10:37:24.485Z,996.13
2017-02-27T10:38:35.990Z,996.13
2017-02-27T10:39:47.489Z,996.17
2017-02-27T10:40:59.177Z,996.07
2017-02-27T10:42:10.892Z,996.06
2017-02-27T10:43:22.393Z,996.06
2017-02-27T10:44:33.898Z,996
2017-02-27T10:45:45.394Z,996.01
2017-02-27T10:46:56.935Z,995.98
2017-02-27T10:48:08.450Z,995.93
2017-02-27T10:49:19.972Z,995.87
2017-02-27T10:50:31.477Z,995.89
2017-02-27T10:51:42.992Z,995.84
2017-02-27T10:52:54.500Z,995.77
2017-02-27T10:54:05.988Z,995.95
2017-02-27T10:55:17.498Z,995.94
2017-02-27T10:56:29.012Z,995.81
2017-02-27T10:57:40.971Z,995.73
2017-02-27T10:58:52.684Z,995.73
2017-02-27T11:00:04.168Z,995.7
2017-02-27T11:01:15.670Z,995.64
2017-02-27T11:02:27.200Z,995.59
2017-02-27T11:03:38.724Z,995.61
2017-02-27T11:04:50.445Z,995.7
2017-02-27T11:06:01.955Z,995.6
2017-02-27T11:07:13.456Z,995.64
2017-02-27T11:08:25.004Z,995.55
2017-02-27T11:09:36.518Z,995.5
2017-02-27T11:10:48.019Z,995.47
2017-02-27T11:11:59.719Z,995.33
2017-02-27T11:13:11.215Z,995.33
2017-02-27T11:14:22.759Z,995.3
2017-02-27T11:15:34.482Z,995.28
2017-02-27T11:16:45.993Z,995.32
2017-02-27T11:17:57.509Z,995.32
2017-02-27T11:19:09.018Z,995.32
2017-02-27T11:20:20.538Z,995.22
2017-02-27T11:21:32.052Z,995.18
2017-02-27T11:22:43.590Z,995.15
2017-02-27T11:23:55.096Z,995.18
2017-02-27T11:25:06.609Z,995.15
2017-02-27T11:26:18.156Z,995.06
2017-02-27T11:27:29.873Z,995.15
2017-02-27T11:28:41.436Z,995.09
2017-02-27T11:29:52.958Z,995.06
2017-02-27T11:31:04.644Z,995.02
2017-02-27T11:32:16.162Z,994.98
2017-02-27T11:33:27.881Z,994.96
2017-02-27T11:34:39.575Z,995.01
2017-02-27T11:35:51.126Z,995.03
2017-02-27T11:37:03.040Z,995.1
2017-02-27T11:38:14.527Z,994.88
2017-02-27T11:39:26.050Z,994.87
2017-02-27T11:40:37.776Z,994.88
2017-02-27T11:41:49.298Z,994.93
2017-02-27T11:43:00.807Z,994.85
2017-02-27T11:44:12.521Z,994.76
2017-02-27T11:45:24.246Z,994.81
2017-02-27T11:46:35.801Z,994.72
2017-02-27T11:47:47.297Z,994.72
2017-02-27T11:48:59.239Z,994.63
2017-02-27T11:50:10.751Z,994.59
2017-02-27T11:51:22.280Z,994.59
2017-02-27T11:52:33.796Z,994.56
2017-02-27T11:53:45.340Z,994.57
2017-02-27T11:54:56.824Z,994.53
2017-02-27T11:56:08.336Z,994.49
2017-02-27T11:57:19.841Z,994.5
2017-02-27T11:58:31.351Z,994.46
2017-02-27T11:59:42.859Z,994.47
2017-02-27T12:00:54.577Z,994.44
2017-02-27T12:02:06.090Z,994.33
2017-02-27T12:03:17.575Z,994.34
2017-02-27T12:04:29.088Z,994.32
2017-02-27T12:05:40.621Z,994.27
2017-02-27T12:06:52.139Z,994.28
2017-02-27T12:08:03.817Z,994.24
2017-02-27T12:09:15.379Z,994.17
2017-02-27T12:10:26.901Z,994.16
2017-02-27T12:11:38.401Z,994.17
2017-02-27T12:12:49.895Z,994.12
2017-02-27T12:14:01.418Z,994.08
2017-02-27T12:15:12.954Z,994.12
2017-02-27T12:16:24.461Z,994.07
2017-02-27T12:17:35.973Z,993.98
2017-02-27T12:18:47.540Z,993.99
2017-02-27T12:19:59.048Z,993.96
2017-02-27T12:21:10.576Z,993.93
2017-02-27T12:22:22.073Z,993.9
2017-02-27T12:23:33.579Z,993.95
2017-02-27T12:24:45.100Z,993.93
2017-02-27T12:25:56.808Z,993.82
2017-02-27T12:27:08.317Z,993.83
2017-02-27T12:28:19.828Z,993.76
2017-02-27T12:29:31.380Z,993.76
2017-02-27T12:30:42.897Z,993.75
2017-02-27T12:31:54.422Z,993.62
2017-02-27T12:33:05.929Z,993.66
2017-02-27T12:34:17.435Z,993.65
2017-02-27T12:35:28.959Z,993.67
2017-02-27T12:36:40.682Z,993.63
2017-02-27T12:37:52.801Z,993.58
2017-02-27T12:39:04.500Z,993.53
2017-02-27T12:40:16.051Z,993.52
2017-02-27T12:41:27.561Z,993.47
2017-02-27T12:42:39.076Z,993.44
2017-02-27T12:43:50.581Z,993.46
2017-02-27T12:45:02.089Z,993.37
2017-02-27T12:46:13.607Z,993.37
2017-02-27T12:47:25.126Z,993.38
2017-02-27T12:48:36.637Z,993.35
2017-02-27T12:49:48.156Z,993.25
2017-02-27T12:50:59.653Z,993.26
2017-02-27T12:52:11.219Z,993.15
2017-02-27T12:53:22.929Z,993.22
2017-02-27T12:54:34.428Z,993.12
2017-02-27T12:55:45.938Z,993.05
2017-02-27T12:56:57.443Z,993.02
2017-02-27T12:58:08.945Z,993
2017-02-27T12:59:20.663Z,992.99
2017-02-27T13:00:32.156Z,992.92
2017-02-27T13:01:43.914Z,992.91
2017-02-27T13:02:55.634Z,992.93
2017-02-27T13:04:07.151Z,992.91
2017-02-27T13:05:18.637Z,992.89
2017-02-27T13:06:30.363Z,992.79
2017-02-27T13:07:41.868Z,992.81
2017-02-27T13:08:53.376Z,992.8
2017-02-27T13:10:04.899Z,992.73
2017-02-27T13:11:16.818Z,992.69
2017-02-27T13:12:28.384Z,992.68
2017-02-27T13:13:39.916Z,992.68
2017-02-27T13:14:51.441Z,992.63
2017-02-27T13:16:02.962Z,992.59
2017-02-27T13:17:14.483Z,992.56
2017-02-27T13:18:26.199Z,992.56
2017-02-27T13:19:37.896Z,992.47
2017-02-27T13:20:49.438Z,992.46
2017-02-27T13:22:00.943Z,992.49
2017-02-27T13:23:12.513Z,992.47
2017-02-27T13:24:24.049Z,992.38
2017-02-27T13:25:35.726Z,992.44
2017-02-27T13:26:47.240Z,992.39
2017-02-27T13:27:58.769Z,992.44
2017-02-27T13:29:10.292Z,992.37
2017-02-27T13:30:21.830Z,992.39
2017-02-27T13:31:33.549Z,992.28
2017-02-27T13:32:45.063Z,992.26
2017-02-27T13:33:56.588Z,992.18
2017-02-27T13:35:08.079Z,992.21
2017-02-27T13:36:19.595Z,992.27
2017-02-27T13:37:31.311Z,992.19
2017-02-27T13:38:42.808Z,992.17
2017-02-27T13:39:54.309Z,992.1
2017-02-27T13:41:06.057Z,992.04
2017-02-27T13:42:17.547Z,992.01
2017-02-27T13:43:29.256Z,991.95
2017-02-27T13:44:40.773Z,991.95
2017-02-27T13:45:52.282Z,991.96
2017-02-27T13:47:03.794Z,991.88
2017-02-27T13:48:15.308Z,991.85
2017-02-27T13:49:26.845Z,991.85
2017-02-27T13:50:38.444Z,991.78
2017-02-27T13:51:50.162Z,991.78
2017-02-27T13:53:01.862Z,991.79
2017-02-27T13:54:13.359Z,991.85
2017-02-27T13:55:24.849Z,991.82
2017-02-27T13:56:36.375Z,991.87
2017-02-27T13:57:47.877Z,991.75
2017-02-27T13:58:59.403Z,991.78
2017-02-27T14:00:10.935Z,991.79
2017-02-27T14:01:22.488Z,991.72
2017-02-27T14:02:33.992Z,991.64
2017-02-27T14:03:45.706Z,991.63
2017-02-27T14:04:57.424Z,991.49
2017-02-27T14:06:08.938Z,991.54
2017-02-27T14:07:20.491Z,991.52
2017-02-27T14:08:31.995Z,991.47
2017-02-27T14:09:43.498Z,991.45
2017-02-27T14:10:55.206Z,991.4
2017-02-27T14:12:06.913Z,991.32
2017-02-27T14:13:18.446Z,991.42
2017-02-27T14:14:30.193Z,991.33
2017-02-27T14:15:41.913Z,991.32
2017-02-27T14:16:53.422Z,991.38
2017-02-27T14:18:04.939Z,991.34
2017-02-27T14:19:16.857Z,991.34
2017-02-27T14:20:28.371Z,991.28
2017-02-27T14:21:39.920Z,991.26
2017-02-27T14:22:51.452Z,991.27
2017-02-27T14:24:03.002Z,991.2
2017-02-27T14:25:14.497Z,991.22
2017-02-27T14:26:26.031Z,991.2
2017-02-27T14:27:37.559Z,991.11
2017-02-27T14:28:49.283Z,991.19
2017-02-27T14:30:00.782Z,991.07
2017-02-27T14:31:12.306Z,991.01
2017-02-27T14:32:23.813Z,990.97
2017-02-27T14:33:35.372Z,990.92
2017-02-27T14:34:46.873Z,990.95
2017-02-27T14:35:58.372Z,990.9
2017-02-27T14:37:10.056Z,990.88
2017-02-27T14:38:21.575Z,990.9
2017-02-27T14:39:33.107Z,990.91
2017-02-27T14:40:44.593Z,990.81
2017-02-27T14:41:56.127Z,990.73
2017-02-27T14:43:07.649Z,990.75
2017-02-27T14:44:19.217Z,990.67
2017-02-27T14:45:30.737Z,990.65
2017-02-27T14:46:42.449Z,990.62
2017-02-27T14:47:53.960Z,990.62
2017-02-27T14:49:05.482Z,990.62
2017-02-27T14:50:16.997Z,990.61
2017-02-27T14:51:28.498Z,990.63
2017-02-27T14:52:40.004Z,990.49
2017-02-27T14:53:51.512Z,990.44
2017-02-27T14:55:03.002Z,990.42
2017-02-27T14:56:14.494Z,990.41
2017-02-27T14:57:25.993Z,990.27
2017-02-27T14:58:37.515Z,990.32
2017-02-27T14:59:49.230Z,990.36
2017-02-27T15:01:00.757Z,990.28
2017-02-27T15:02:12.270Z,990.27
2017-02-27T15:03:23.790Z,990.26
2017-02-27T15:04:35.311Z,990.24
2017-02-27T15:05:46.805Z,990.08